createdAt,value
2019-01-14T00:00:04.328Z,78.67
2019-01-14T00:01:04.285Z,77.74
2019-01-14T00:02:04.277Z,77.94
2019-01-14T00:03:04.270Z,77.74
2019-01-14T00:04:04.259Z,76.81
2019-01-14T00:05:04.255Z,76.81
2019-01-14T00:06:10.117Z,76.18
2019-01-14T00:07:05.220Z,75.36
2019-01-14T00:08:04.204Z,74.22
2019-01-14T00:09:04.194Z,73.60
2019-01-14T00:10:04.198Z,73.71
2019-01-14T00:11:04.177Z,73.19
2019-01-14T00:12:04.172Z,72.29
2019-01-14T00:13:04.170Z,72.29
2019-01-14T00:14:04.140Z,70.74
2019-01-14T00:15:04.146Z,71.12
2019-01-14T00:16:04.128Z,70.74
2019-01-14T00:17:04.113Z,71.47
2019-01-14T00:18:04.109Z,70.53
2019-01-14T00:19:04.102Z,70.43
2019-01-14T00:20:04.092Z,69.50
2019-01-14T00:21:04.066Z,69.60
2019-01-14T00:22:04.064Z,69.29
2019-01-14T00:23:04.031Z,69.19
2019-01-14T00:24:04.021Z,69.32
2019-01-14T00:25:04.027Z,69.60
2019-01-14T00:26:04.014Z,69.50
2019-01-14T00:27:04.003Z,69.40
2019-01-14T00:28:03.977Z,68.36
2019-01-14T00:29:03.972Z,68.36
2019-01-14T00:30:03.982Z,68.36
2019-01-14T00:31:03.939Z,68.46
2019-01-14T00:32:03.937Z,69.12
2019-01-14T00:33:03.935Z,69.50
2019-01-14T00:34:03.921Z,68.57
2019-01-14T00:35:03.924Z,69.64
2019-01-14T00:36:03.895Z,69.12
2019-01-14T00:37:03.892Z,69.50
2019-01-14T00:38:03.883Z,70.15
2019-01-14T00:39:03.860Z,69.84
2019-01-14T00:40:03.878Z,69.92
2019-01-14T00:41:03.839Z,70.01
2019-01-14T00:42:03.835Z,70.32
2019-01-14T00:43:03.824Z,70.26
2019-01-14T00:44:03.798Z,70.84
2019-01-14T00:45:03.795Z,69.84
2019-01-14T00:46:03.799Z,70.36
2019-01-14T00:47:03.767Z,70.36
2019-01-14T00:48:03.763Z,70.50
2019-01-14T00:49:03.750Z,71.19
2019-01-14T00:50:03.737Z,71.29
2019-01-14T00:51:03.748Z,71.81
2019-01-14T00:52:03.715Z,71.19
2019-01-14T00:53:03.692Z,71.39
2019-01-14T00:54:03.685Z,70.98
2019-01-14T00:55:03.696Z,72.05
2019-01-14T00:56:03.675Z,72.67
2019-01-14T00:57:03.651Z,71.81
2019-01-14T00:58:03.717Z,71.81
2019-01-14T00:59:03.623Z,71.91
2019-01-14T01:00:03.629Z,72.33
2019-01-14T01:01:03.631Z,72.12
2019-01-14T01:02:03.599Z,72.43
2019-01-14T01:03:03.589Z,72.53
2019-01-14T01:04:03.580Z,72.33
2019-01-14T01:05:03.562Z,72.64
2019-01-14T01:06:03.574Z,72.53
2019-01-14T01:07:03.540Z,72.64
2019-01-14T01:08:03.529Z,73.36
2019-01-14T01:09:03.518Z,72.56
2019-01-14T01:10:03.523Z,73.29
2019-01-14T01:11:03.521Z,73.71
2019-01-14T01:12:03.490Z,73.39
2019-01-14T01:13:03.473Z,73.67
2019-01-14T01:14:03.473Z,73.81
2019-01-14T01:15:03.459Z,73.60
2019-01-14T01:16:03.455Z,74.43
2019-01-14T01:17:03.428Z,74.12
2019-01-14T01:18:03.418Z,74.63
2019-01-14T01:19:03.415Z,74.02
2019-01-14T01:20:03.402Z,74.02
2019-01-14T01:21:03.403Z,74.32
2019-01-14T01:22:03.368Z,74.74
2019-01-14T01:23:03.365Z,75.40
2019-01-14T01:24:03.345Z,76.43
2019-01-14T01:25:03.337Z,76.02
2019-01-14T01:26:03.338Z,75.92
2019-01-14T01:27:03.309Z,75.46
2019-01-14T01:28:03.305Z,75.60
2019-01-14T01:29:03.292Z,75.05
2019-01-14T01:30:03.286Z,75.50
2019-01-14T01:31:03.286Z,75.19
2019-01-14T01:32:03.256Z,75.92
2019-01-14T01:33:03.254Z,75.50
2019-01-14T01:34:03.234Z,76.23
2019-01-14T01:35:03.229Z,76.23
2019-01-14T01:36:03.222Z,76.32
2019-01-14T01:37:03.209Z,75.50
2019-01-14T01:38:03.194Z,76.32
2019-01-14T01:39:03.220Z,76.95
2019-01-14T01:40:03.172Z,77.36
2019-01-14T01:41:03.176Z,78.12
2019-01-14T01:42:03.150Z,78.44
2019-01-14T01:43:03.124Z,78.30
2019-01-14T01:44:03.127Z,78.96
2019-01-14T01:45:03.108Z,79.06
2019-01-14T01:46:03.125Z,79.58
2019-01-14T01:47:03.111Z,79.99
2019-01-14T01:48:03.074Z,79.68
2019-01-14T01:49:03.073Z,79.37
2019-01-14T01:50:03.053Z,79.47
2019-01-14T01:51:03.042Z,79.99
2019-01-14T01:52:03.053Z,80.09
2019-01-14T01:53:03.016Z,79.99
2019-01-14T01:54:03.011Z,80.19
2019-01-14T01:55:03.013Z,80.51
2019-01-14T01:56:02.986Z,80.09
2019-01-14T01:57:02.994Z,80.40
2019-01-14T01:58:02.966Z,80.40
2019-01-14T01:59:02.962Z,80.09
2019-01-14T02:00:02.939Z,79.37
2019-01-14T02:01:02.937Z,79.16
2019-01-14T02:02:02.943Z,78.96
2019-01-14T02:03:02.910Z,79.27
2019-01-14T02:04:02.896Z,79.78
2019-01-14T02:05:02.889Z,79.71
2019-01-14T02:06:02.875Z,79.47
2019-01-14T02:07:02.885Z,79.20
2019-01-14T02:08:02.852Z,78.54
2019-01-14T02:09:02.842Z,78.23
2019-01-14T02:10:02.838Z,77.71
2019-01-14T02:11:02.821Z,77.71
2019-01-14T02:12:02.825Z,77.71
2019-01-14T02:13:02.796Z,77.09
2019-01-14T02:14:02.797Z,77.40
2019-01-14T02:15:02.779Z,77.75
2019-01-14T02:16:02.772Z,78.06
2019-01-14T02:17:02.771Z,78.44
2019-01-14T02:18:02.733Z,78.12
2019-01-14T02:19:02.737Z,76.92
2019-01-14T02:20:02.725Z,77.19
2019-01-14T02:21:02.701Z,76.67
2019-01-14T02:22:02.715Z,77.19
2019-01-14T02:23:02.693Z,76.36
2019-01-14T02:24:02.678Z,76.26
2019-01-14T02:25:02.684Z,76.29
2019-01-14T02:26:02.660Z,75.84
2019-01-14T02:27:02.671Z,75.53
2019-01-14T02:28:02.631Z,76.46
2019-01-14T02:29:02.629Z,75.12
2019-01-14T02:30:02.614Z,75.53
2019-01-14T02:31:02.591Z,74.81
2019-01-14T02:32:02.613Z,75.22
2019-01-14T02:33:02.588Z,76.05
2019-01-14T02:34:02.563Z,75.84
2019-01-14T02:35:02.568Z,74.91
2019-01-14T02:36:02.540Z,74.29
2019-01-14T02:37:02.553Z,75.32
2019-01-14T02:38:02.518Z,74.81
2019-01-14T02:39:02.504Z,75.63
2019-01-14T02:40:02.507Z,74.91
2019-01-14T02:41:02.488Z,74.91
2019-01-14T02:42:02.478Z,74.40
2019-01-14T02:43:02.475Z,74.81
2019-01-14T02:44:02.446Z,74.60
2019-01-14T02:45:02.457Z,74.19
2019-01-14T02:46:02.439Z,74.43
2019-01-14T02:47:02.424Z,74.53
2019-01-14T02:48:02.424Z,74.43
2019-01-14T02:49:02.397Z,74.63
2019-01-14T02:50:02.388Z,74.11
2019-01-14T02:51:02.388Z,73.80
2019-01-14T02:52:02.368Z,72.53
2019-01-14T02:53:02.393Z,72.63
2019-01-14T02:54:02.335Z,73.46
2019-01-14T02:55:02.333Z,73.46
2019-01-14T02:56:02.313Z,73.88
2019-01-14T02:57:02.321Z,72.94
2019-01-14T02:58:02.309Z,73.67
2019-01-14T02:59:02.300Z,72.63
2019-01-14T03:00:02.285Z,72.74
2019-01-14T03:01:02.265Z,73.36
2019-01-14T03:02:02.253Z,73.46
2019-01-14T03:03:02.265Z,72.63
2019-01-14T03:04:02.241Z,72.63
2019-01-14T03:05:02.223Z,73.25
2019-01-14T03:06:02.202Z,73.98
2019-01-14T03:07:02.194Z,72.63
2019-01-14T03:08:02.203Z,73.57
2019-01-14T03:09:02.179Z,72.53
2019-01-14T03:10:02.164Z,72.32
2019-01-14T03:11:02.153Z,72.46
2019-01-14T03:12:02.144Z,72.77
2019-01-14T03:13:02.183Z,72.46
2019-01-14T03:14:02.121Z,71.94
2019-01-14T03:15:02.103Z,72.67
2019-01-14T03:16:02.107Z,72.53
2019-01-14T03:17:02.093Z,72.11
2019-01-14T03:18:02.072Z,71.70
2019-01-14T03:19:02.088Z,72.56
2019-01-14T03:20:02.067Z,72.46
2019-01-14T03:21:02.045Z,72.36
2019-01-14T03:22:02.038Z,72.63
2019-01-14T03:23:02.024Z,72.36
2019-01-14T03:24:02.033Z,71.80
2019-01-14T03:25:02.009Z,72.01
2019-01-14T03:26:01.989Z,71.73
2019-01-14T03:27:01.971Z,71.94
2019-01-14T03:28:01.960Z,71.94
2019-01-14T03:29:01.983Z,71.84
2019-01-14T03:30:01.946Z,71.53
2019-01-14T03:31:01.938Z,71.42
2019-01-14T03:32:01.952Z,71.42
2019-01-14T03:33:01.909Z,71.94
2019-01-14T03:34:01.912Z,71.73
2019-01-14T03:35:01.887Z,71.53
2019-01-14T03:36:01.882Z,71.84
2019-01-14T03:37:05.609Z,71.94
2019-01-14T03:38:01.850Z,71.73
2019-01-14T03:39:01.850Z,71.53
2019-01-14T03:40:01.830Z,71.63
2019-01-14T03:41:01.810Z,72.05
2019-01-14T03:42:01.808Z,71.63
2019-01-14T03:43:01.804Z,72.60
2019-01-14T03:44:01.824Z,71.94
2019-01-14T03:45:01.789Z,71.84
2019-01-14T03:46:01.764Z,71.32
2019-01-14T03:47:01.769Z,71.01
2019-01-14T03:48:01.740Z,71.87
2019-01-14T03:49:01.764Z,70.70
2019-01-14T03:50:01.720Z,70.94
2019-01-14T03:51:01.703Z,71.04
2019-01-14T03:52:01.696Z,70.83
2019-01-14T03:53:01.700Z,70.62
2019-01-14T03:54:01.716Z,70.83
2019-01-14T03:55:01.677Z,71.04
2019-01-14T03:56:01.650Z,70.62
2019-01-14T03:57:01.636Z,70.73
2019-01-14T03:58:01.646Z,70.62
2019-01-14T03:59:01.615Z,70.31
2019-01-14T04:00:01.626Z,70.52
2019-01-14T04:01:01.595Z,69.90
2019-01-14T04:02:01.592Z,69.69
2019-01-14T04:03:01.576Z,70.00
2019-01-14T04:04:01.642Z,70.21
2019-01-14T04:05:01.580Z,70.52
2019-01-14T04:06:01.542Z,70.62
2019-01-14T04:07:01.540Z,70.42
2019-01-14T04:08:01.517Z,70.94
2019-01-14T04:09:01.506Z,71.04
2019-01-14T04:10:01.514Z,71.66
2019-01-14T04:11:01.493Z,71.04
2019-01-14T04:12:01.480Z,70.83
2019-01-14T04:13:01.464Z,71.35
2019-01-14T04:14:01.450Z,71.35
2019-01-14T04:15:01.458Z,71.45
2019-01-14T04:16:01.431Z,70.62
2019-01-14T04:17:01.426Z,70.52
2019-01-14T04:18:01.405Z,69.59
2019-01-14T04:19:01.400Z,70.10
2019-01-14T04:20:01.436Z,70.00
2019-01-14T04:21:01.381Z,70.21
2019-01-14T04:22:01.364Z,69.79
2019-01-14T04:23:01.536Z,69.90
2019-01-14T04:24:01.337Z,69.62
2019-01-14T04:25:01.348Z,69.52
2019-01-14T04:26:01.374Z,69.52
2019-01-14T04:27:01.312Z,69.62
2019-01-14T04:28:01.298Z,69.62
2019-01-14T04:29:01.296Z,68.90
2019-01-14T04:30:01.284Z,69.31
2019-01-14T04:31:01.258Z,69.52
2019-01-14T04:32:01.267Z,68.69
2019-01-14T04:33:01.256Z,68.79
2019-01-14T04:34:01.237Z,68.79
2019-01-14T04:35:01.246Z,67.03
2019-01-14T04:36:01.207Z,67.27
2019-01-14T04:37:01.209Z,67.58
2019-01-14T04:38:01.187Z,67.55
2019-01-14T04:39:01.198Z,66.75
2019-01-14T04:40:01.164Z,67.06
2019-01-14T04:41:01.169Z,67.37
2019-01-14T04:42:01.140Z,67.27
2019-01-14T04:43:01.175Z,66.64
2019-01-14T04:44:01.115Z,65.29
2019-01-14T04:45:01.114Z,65.53
2019-01-14T04:46:01.117Z,64.80
2019-01-14T04:47:01.087Z,65.32
2019-01-14T04:48:01.073Z,65.53
2019-01-14T04:49:01.066Z,65.77
2019-01-14T04:50:01.061Z,65.14
2019-01-14T04:51:01.064Z,63.69
2019-01-14T04:52:01.033Z,65.01
2019-01-14T04:53:01.023Z,64.90
2019-01-14T04:54:01.025Z,63.79
2019-01-14T04:55:00.997Z,63.66
2019-01-14T04:56:01.017Z,63.48
2019-01-14T04:57:00.985Z,62.96
2019-01-14T04:58:00.967Z,62.96
2019-01-14T04:59:00.959Z,63.17
2019-01-14T05:00:00.951Z,62.13
2019-01-14T05:01:00.953Z,63.79
2019-01-14T05:02:00.926Z,62.96
2019-01-14T05:03:00.915Z,63.51
2019-01-14T05:04:00.910Z,63.62
2019-01-14T05:05:00.896Z,63.79
2019-01-14T05:06:00.899Z,63.17
2019-01-14T05:07:00.879Z,63.72
2019-01-14T05:08:00.852Z,63.31
2019-01-14T05:09:00.846Z,62.57
2019-01-14T05:10:00.835Z,62.57
2019-01-14T05:11:00.852Z,62.37
2019-01-14T05:12:00.808Z,62.99
2019-01-14T05:13:00.801Z,62.78
2019-01-14T05:14:00.792Z,62.37
2019-01-14T05:15:00.775Z,63.20
2019-01-14T05:16:00.786Z,63.31
2019-01-14T05:17:00.774Z,62.34
2019-01-14T05:18:00.746Z,61.82
2019-01-14T05:19:00.730Z,61.12
2019-01-14T05:20:00.735Z,61.85
2019-01-14T05:21:00.735Z,61.02
2019-01-14T05:22:00.704Z,61.43
2019-01-14T05:23:00.700Z,61.95
2019-01-14T05:24:00.674Z,62.37
2019-01-14T05:25:00.674Z,61.54
2019-01-14T05:26:00.695Z,61.95
2019-01-14T05:27:00.648Z,62.47
2019-01-14T05:28:00.653Z,62.88
2019-01-14T05:29:00.636Z,62.78
2019-01-14T05:30:00.632Z,62.99
2019-01-14T05:31:00.617Z,62.68
2019-01-14T05:32:00.611Z,62.16
2019-01-14T05:33:00.586Z,62.57
2019-01-14T05:34:00.561Z,62.37
2019-01-14T05:35:00.584Z,63.20
2019-01-14T05:36:00.546Z,63.72
2019-01-14T05:37:00.554Z,64.03
2019-01-14T05:38:00.587Z,64.45
2019-01-14T05:39:00.523Z,64.97
2019-01-14T05:40:00.515Z,65.10
2019-01-14T05:41:00.506Z,65.52
2019-01-14T05:42:00.488Z,65.31
2019-01-14T05:43:00.483Z,65.83
2019-01-14T05:44:00.484Z,65.62
2019-01-14T05:45:00.473Z,65.41
2019-01-14T05:46:00.438Z,65.80
2019-01-14T05:47:00.449Z,65.90
2019-01-14T05:48:00.416Z,65.38
2019-01-14T05:49:00.411Z,65.48
2019-01-14T05:50:00.394Z,64.97
2019-01-14T05:51:00.399Z,64.97
2019-01-14T05:52:00.390Z,63.72
2019-01-14T05:53:00.365Z,63.64
2019-01-14T05:54:00.352Z,63.51
2019-01-14T05:55:00.351Z,64.14
2019-01-14T05:56:00.323Z,64.03
2019-01-14T05:57:00.337Z,63.41
2019-01-14T05:58:00.318Z,63.82
2019-01-14T05:59:00.297Z,63.51
2019-01-14T06:00:00.284Z,63.64
2019-01-14T06:01:00.277Z,63.41
2019-01-14T06:02:00.281Z,63.82
2019-01-14T06:03:00.286Z,63.62
2019-01-14T06:04:00.267Z,63.38
2019-01-14T06:05:00.235Z,63.51
2019-01-14T06:06:00.214Z,63.59
2019-01-14T06:07:00.206Z,63.69
2019-01-14T06:08:00.218Z,63.59
2019-01-14T06:09:00.199Z,63.28
2019-01-14T06:10:00.214Z,63.17
2019-01-14T06:11:00.175Z,63.07
2019-01-14T06:12:00.162Z,62.55
2019-01-14T06:13:00.159Z,62.45
2019-01-14T06:14:00.135Z,63.90
2019-01-14T06:15:00.210Z,63.48
2019-01-14T06:16:00.117Z,63.38
2019-01-14T06:17:00.112Z,62.55
2019-01-14T06:18:00.113Z,62.86
2019-01-14T06:19:00.083Z,63.17
2019-01-14T06:20:00.087Z,62.96
2019-01-14T06:21:00.059Z,63.17
2019-01-14T06:22:00.061Z,63.17
2019-01-14T06:23:00.059Z,62.34
2019-01-14T06:24:00.045Z,62.55
2019-01-14T06:25:00.644Z,62.76
2019-01-14T06:26:00.046Z,63.07
2019-01-14T06:27:00.020Z,63.69
2019-01-14T06:28:00.063Z,64.00
2019-01-14T06:28:59.992Z,65.14
2019-01-14T06:29:59.968Z,67.15
2019-01-14T06:30:59.981Z,74.67
2019-01-14T06:31:59.987Z,78.10
2019-01-14T06:32:59.969Z,81.60
2019-01-14T06:33:59.986Z,83.52
2019-01-14T06:34:59.928Z,85.12
2019-01-14T06:35:59.932Z,86.41
2019-01-14T06:36:59.884Z,86.72
2019-01-14T06:37:59.906Z,86.97
2019-01-14T06:38:59.852Z,88.01
2019-01-14T06:39:59.842Z,89.10
2019-01-14T06:40:59.838Z,88.99
2019-01-14T06:41:59.828Z,89.62
2019-01-14T06:42:59.831Z,89.93
2019-01-14T06:43:59.806Z,90.87
2019-01-14T06:44:59.792Z,90.81
2019-01-14T06:45:59.790Z,91.85
2019-01-14T06:46:59.774Z,92.12
2019-01-14T06:47:59.776Z,92.37
2019-01-14T06:48:59.756Z,91.02
2019-01-14T06:49:59.736Z,91.12
2019-01-14T06:50:59.739Z,91.54
2019-01-14T06:51:59.728Z,91.43
2019-01-14T06:52:59.734Z,92.27
2019-01-14T06:53:59.713Z,94.15
2019-01-14T06:54:59.678Z,94.88
2019-01-14T06:55:59.664Z,94.67
2019-01-14T06:56:59.682Z,94.46
2019-01-14T06:57:59.653Z,94.04
2019-01-14T06:58:59.659Z,94.29
2019-01-14T06:59:59.640Z,94.25
2019-01-14T07:00:59.612Z,93.00
2019-01-14T07:01:59.606Z,92.79
2019-01-14T07:02:59.599Z,93.73
2019-01-14T07:03:59.615Z,93.84
2019-01-14T07:04:59.571Z,92.47
2019-01-14T07:05:59.571Z,90.81
2019-01-14T07:06:59.546Z,91.64
2019-01-14T07:08:00.058Z,91.75
2019-01-14T07:08:59.550Z,91.54
2019-01-14T07:09:59.552Z,89.87
2019-01-14T07:10:59.506Z,90.08
2019-01-14T07:11:59.513Z,89.41
2019-01-14T07:12:59.490Z,88.72
2019-01-14T07:13:59.526Z,88.57
2019-01-14T07:14:59.453Z,88.37
2019-01-14T07:15:59.446Z,87.63
2019-01-14T07:16:59.445Z,87.74
2019-01-14T07:17:59.456Z,88.06
2019-01-14T07:18:59.443Z,87.63
2019-01-14T07:19:59.410Z,86.80
2019-01-14T07:20:59.423Z,87.74
2019-01-14T07:21:59.395Z,87.43
2019-01-14T07:22:59.370Z,86.91
2019-01-14T07:23:59.403Z,85.76
2019-01-14T07:24:59.353Z,85.97
2019-01-14T07:25:59.366Z,86.28
2019-01-14T07:26:59.334Z,85.65
2019-01-14T07:27:59.313Z,85.44
2019-01-14T07:28:59.341Z,85.13
2019-01-14T07:29:59.290Z,85.03
2019-01-14T07:30:59.294Z,85.13
2019-01-14T07:31:59.317Z,85.55
2019-01-14T07:32:59.259Z,84.40
2019-01-14T07:33:59.272Z,84.57
2019-01-14T07:34:59.250Z,84.26
2019-01-14T07:35:59.305Z,83.84
2019-01-14T07:36:59.218Z,84.16
2019-01-14T07:37:59.205Z,83.01
2019-01-14T07:38:59.192Z,82.70
2019-01-14T07:39:59.196Z,83.01
2019-01-14T07:40:59.177Z,83.01
2019-01-14T07:41:59.176Z,83.11
2019-01-14T07:42:59.157Z,83.11
2019-01-14T07:43:59.144Z,83.01
2019-01-14T07:44:59.142Z,82.65
2019-01-14T07:45:59.122Z,82.24
2019-01-14T07:46:59.105Z,81.72
2019-01-14T07:47:59.096Z,81.41
2019-01-14T07:48:59.091Z,80.78
2019-01-14T07:49:59.086Z,79.74
2019-01-14T07:50:59.066Z,78.28
2019-01-14T07:51:59.095Z,77.86
2019-01-14T07:52:59.062Z,78.38
2019-01-14T07:53:59.036Z,76.92
2019-01-14T07:54:59.053Z,74.18
2019-01-14T07:55:59.076Z,71.37
2019-01-14T07:56:59.006Z,71.37
2019-01-14T07:57:59.001Z,71.16
2019-01-14T07:58:58.989Z,70.84
2019-01-14T07:59:58.981Z,70.95
2019-01-14T08:00:58.968Z,71.05
2019-01-14T08:01:58.942Z,71.65
2019-01-14T08:02:58.936Z,69.98
2019-01-14T08:03:58.938Z,69.15
2019-01-14T08:04:58.921Z,67.58
2019-01-14T08:05:58.907Z,66.99
2019-01-14T08:06:58.890Z,67.38
2019-01-14T08:07:58.871Z,66.75
2019-01-14T08:08:58.867Z,66.13
2019-01-14T08:09:58.916Z,67.17
2019-01-14T08:10:58.846Z,67.69
2019-01-14T08:11:58.836Z,67.14
2019-01-14T08:12:58.821Z,67.45
2019-01-14T08:13:58.808Z,66.30
2019-01-14T08:14:58.799Z,66.75
2019-01-14T08:15:58.816Z,66.83
2019-01-14T08:16:58.784Z,65.92
2019-01-14T08:17:58.801Z,67.24
2019-01-14T08:18:58.775Z,65.50
2019-01-14T08:19:58.751Z,65.50
2019-01-14T08:20:58.760Z,65.92
2019-01-14T08:21:58.737Z,65.47
2019-01-14T08:22:58.750Z,66.54
2019-01-14T08:23:58.720Z,65.78
2019-01-14T08:24:58.690Z,65.61
2019-01-14T08:25:58.686Z,65.26
2019-01-14T08:26:58.681Z,65.37
2019-01-14T08:27:58.664Z,65.78
2019-01-14T08:28:58.641Z,65.81
2019-01-14T08:29:58.642Z,65.68
2019-01-14T08:30:58.657Z,65.92
2019-01-14T08:31:58.632Z,65.30
2019-01-14T08:32:58.598Z,65.61
2019-01-14T08:33:58.594Z,65.40
2019-01-14T08:34:58.584Z,66.13
2019-01-14T08:35:58.669Z,65.37
2019-01-14T08:37:00.884Z,65.99
2019-01-14T08:37:58.565Z,65.40
2019-01-14T08:38:58.544Z,65.71
2019-01-14T08:39:58.539Z,66.23
2019-01-14T08:40:58.541Z,64.75
2019-01-14T08:41:58.511Z,65.19
2019-01-14T08:42:58.487Z,65.09
2019-01-14T08:43:58.495Z,65.19
2019-01-14T08:44:58.466Z,65.81
2019-01-14T08:45:58.470Z,65.19
2019-01-14T08:46:58.448Z,65.19
2019-01-14T08:47:58.438Z,65.30
2019-01-14T08:48:58.440Z,65.50
2019-01-14T08:49:58.412Z,66.05
2019-01-14T08:50:58.428Z,65.30
2019-01-14T08:51:58.395Z,65.81
2019-01-14T08:52:58.378Z,64.15
2019-01-14T08:53:58.382Z,63.53
2019-01-14T08:54:58.351Z,64.87
2019-01-14T08:55:58.377Z,63.63
2019-01-14T08:56:58.335Z,64.01
2019-01-14T08:57:58.332Z,64.04
2019-01-14T08:58:58.323Z,63.60
2019-01-14T08:59:59.149Z,63.00
2019-01-14T09:00:58.295Z,63.94
2019-01-14T09:01:58.299Z,63.63
2019-01-14T09:02:58.275Z,63.73
2019-01-14T09:03:58.269Z,63.42
2019-01-14T09:04:58.261Z,63.53
2019-01-14T09:05:58.233Z,62.79
2019-01-14T09:06:58.243Z,63.21
2019-01-14T09:07:58.214Z,63.73
2019-01-14T09:08:58.276Z,61.86
2019-01-14T09:09:58.197Z,63.10
2019-01-14T09:10:58.350Z,64.04
2019-01-14T09:11:58.193Z,63.10
2019-01-14T09:12:58.173Z,60.92
2019-01-14T09:13:58.166Z,62.04
2019-01-14T09:14:58.155Z,61.21
2019-01-14T09:15:58.129Z,60.89
2019-01-14T09:16:58.142Z,61.21
2019-01-14T09:18:02.678Z,61.21
2019-01-14T09:18:59.102Z,61.10
2019-01-14T09:19:58.090Z,61.10
2019-01-14T09:20:58.997Z,61.21
2019-01-14T09:21:58.082Z,61.10
2019-01-14T09:22:58.048Z,60.27
2019-01-14T09:23:58.042Z,60.16
2019-01-14T09:24:58.119Z,60.27
2019-01-14T09:25:58.017Z,60.16
2019-01-14T09:26:58.025Z,61.21
2019-01-14T09:27:58.004Z,60.37
2019-01-14T09:28:57.977Z,58.91
2019-01-14T09:29:57.986Z,59.64
2019-01-14T09:30:57.974Z,58.60
2019-01-14T09:31:57.967Z,59.95
2019-01-14T09:32:57.969Z,59.44
2019-01-14T09:33:57.944Z,58.08
2019-01-14T09:34:57.922Z,59.33
2019-01-14T09:35:57.906Z,59.85
2019-01-14T09:36:58.003Z,60.58
2019-01-14T09:37:57.900Z,59.75
2019-01-14T09:38:57.880Z,60.27
2019-01-14T09:39:57.882Z,59.33
2019-01-14T09:40:57.871Z,57.98
2019-01-14T09:41:57.860Z,59.33
2019-01-14T09:42:57.860Z,58.70
2019-01-14T09:43:57.818Z,57.98
2019-01-14T09:44:57.809Z,58.16
2019-01-14T09:45:57.813Z,58.26
2019-01-14T09:46:57.788Z,58.16
2019-01-14T09:47:57.785Z,58.29
2019-01-14T09:48:57.773Z,58.16
2019-01-14T09:49:57.756Z,58.26
2019-01-14T09:50:57.747Z,58.16
2019-01-14T09:51:57.745Z,57.64
2019-01-14T09:52:57.749Z,58.06
2019-01-14T09:53:57.718Z,58.16
2019-01-14T09:54:57.708Z,57.85
2019-01-14T09:55:57.747Z,56.60
2019-01-14T09:56:57.680Z,56.70
2019-01-14T09:57:57.684Z,55.35
2019-01-14T09:58:57.651Z,55.98
2019-01-14T09:59:57.659Z,55.45
2019-01-14T10:00:57.633Z,55.56
2019-01-14T10:01:57.635Z,55.35
2019-01-14T10:02:57.661Z,55.56
2019-01-14T10:03:57.607Z,55.43
2019-01-14T10:04:57.586Z,55.43
2019-01-14T10:05:57.684Z,55.77
2019-01-14T10:06:57.577Z,55.11
2019-01-14T10:07:57.576Z,54.52
2019-01-14T10:08:57.560Z,55.35
2019-01-14T10:09:57.534Z,55.53
2019-01-14T10:10:57.594Z,54.80
2019-01-14T10:11:57.517Z,54.49
2019-01-14T10:12:57.518Z,54.39
2019-01-14T10:13:57.489Z,54.60
2019-01-14T10:14:57.492Z,53.25
2019-01-14T10:15:57.479Z,54.60
2019-01-14T10:16:57.468Z,53.97
2019-01-14T10:17:57.472Z,54.18
2019-01-14T10:18:57.447Z,54.60
2019-01-14T10:19:57.434Z,54.18
2019-01-14T10:20:57.423Z,55.22
2019-01-14T10:21:57.424Z,54.70
2019-01-14T10:22:57.413Z,55.43
2019-01-14T10:23:57.382Z,55.43
2019-01-14T10:24:57.372Z,55.32
2019-01-14T10:25:57.361Z,55.63
2019-01-14T10:26:57.346Z,55.84
2019-01-14T10:27:57.358Z,55.11
2019-01-14T10:28:57.327Z,55.32
2019-01-14T10:29:57.310Z,55.32
2019-01-14T10:30:57.307Z,55.43
2019-01-14T10:31:57.313Z,56.23
2019-01-14T10:32:57.290Z,55.92
2019-01-14T10:33:57.271Z,56.76
2019-01-14T10:34:57.269Z,54.88
2019-01-14T10:35:57.253Z,55.61
2019-01-14T10:36:57.243Z,55.19
2019-01-14T10:37:57.257Z,55.30
2019-01-14T10:38:57.228Z,55.09
2019-01-14T10:39:57.220Z,55.19
2019-01-14T10:40:57.193Z,54.80
2019-01-14T10:41:57.190Z,55.19
2019-01-14T10:42:57.185Z,55.40
2019-01-14T10:43:57.179Z,55.40
2019-01-14T10:44:57.158Z,55.43
2019-01-14T10:45:57.142Z,55.95
2019-01-14T10:46:57.152Z,54.91
2019-01-14T10:47:57.131Z,55.43
2019-01-14T10:48:57.124Z,54.28
2019-01-14T10:49:57.100Z,54.60
2019-01-14T10:50:57.083Z,55.74
2019-01-14T10:51:57.071Z,55.43
2019-01-14T10:52:57.064Z,54.91
2019-01-14T10:53:57.072Z,55.22
2019-01-14T10:54:57.038Z,55.63
2019-01-14T10:55:57.030Z,55.63
2019-01-14T10:56:57.021Z,55.11
2019-01-14T10:57:57.015Z,55.11
2019-01-14T10:58:57.011Z,54.28
2019-01-14T10:59:56.982Z,53.77
2019-01-14T11:00:56.972Z,54.57
2019-01-14T11:01:56.972Z,54.26
2019-01-14T11:02:56.958Z,54.99
2019-01-14T11:03:56.960Z,54.05
2019-01-14T11:04:56.934Z,53.74
2019-01-14T11:05:56.921Z,54.36
2019-01-14T11:06:56.907Z,54.57
2019-01-14T11:07:56.909Z,54.78
2019-01-14T11:08:58.849Z,54.16
2019-01-14T11:09:57.883Z,54.78
2019-01-14T11:10:56.864Z,55.09
2019-01-14T11:11:56.869Z,55.51
2019-01-14T11:12:56.842Z,55.38
2019-01-14T11:13:56.844Z,54.68
2019-01-14T11:14:56.827Z,54.47
2019-01-14T11:15:56.819Z,53.74
2019-01-14T11:16:56.802Z,52.80
2019-01-14T11:17:56.796Z,53.95
2019-01-14T11:18:56.905Z,53.85
2019-01-14T11:19:56.778Z,53.64
2019-01-14T11:20:56.755Z,52.80
2019-01-14T11:21:56.761Z,52.18
2019-01-14T11:22:56.729Z,52.80
2019-01-14T11:23:56.770Z,52.80
2019-01-14T11:24:56.741Z,53.33
2019-01-14T11:25:56.709Z,53.85
2019-01-14T11:26:56.693Z,53.22
2019-01-14T11:27:56.701Z,53.95
2019-01-14T11:28:56.683Z,54.16
2019-01-14T11:29:56.675Z,53.64
2019-01-14T11:30:56.663Z,53.01
2019-01-14T11:31:56.633Z,52.80
2019-01-14T11:32:56.628Z,52.59
2019-01-14T11:33:56.624Z,52.67
2019-01-14T11:34:56.616Z,52.88
2019-01-14T11:35:56.591Z,53.01
2019-01-14T11:36:56.595Z,52.91
2019-01-14T11:37:56.559Z,53.20
2019-01-14T11:38:56.567Z,52.15
2019-01-14T11:39:56.584Z,51.56
2019-01-14T11:40:56.542Z,52.70
2019-01-14T11:41:56.525Z,52.26
2019-01-14T11:42:56.526Z,52.05
2019-01-14T11:43:56.501Z,51.04
2019-01-14T11:44:57.113Z,50.83
2019-01-14T11:45:56.485Z,51.22
2019-01-14T11:46:56.477Z,51.12
2019-01-14T11:47:56.461Z,51.56
2019-01-14T11:48:56.461Z,51.25
2019-01-14T11:49:56.445Z,51.04
2019-01-14T11:50:56.426Z,51.56
2019-01-14T11:51:56.414Z,50.31
2019-01-14T11:52:56.425Z,50.10
2019-01-14T11:53:56.399Z,49.71
2019-01-14T11:54:56.401Z,49.37
2019-01-14T11:55:56.390Z,49.81
2019-01-14T11:56:56.363Z,50.54
2019-01-14T11:57:56.348Z,50.85
2019-01-14T11:58:56.336Z,50.85
2019-01-14T11:59:56.336Z,50.62
2019-01-14T12:00:56.327Z,51.48
2019-01-14T12:01:56.302Z,50.96
2019-01-14T12:02:56.295Z,49.91
2019-01-14T12:03:56.287Z,50.33
2019-01-14T12:04:56.283Z,50.85
2019-01-14T12:05:56.266Z,51.17
2019-01-14T12:06:56.254Z,50.65
2019-01-14T12:07:56.236Z,52.31
2019-01-14T12:08:56.240Z,51.37
2019-01-14T12:09:56.232Z,50.85
2019-01-14T12:10:56.205Z,50.54
2019-01-14T12:11:56.209Z,50.33
2019-01-14T12:12:56.183Z,51.06
2019-01-14T12:13:56.172Z,51.17
2019-01-14T12:14:56.178Z,51.27
2019-01-14T12:15:56.151Z,50.96
2019-01-14T12:16:56.138Z,51.06
2019-01-14T12:17:56.158Z,51.17
2019-01-14T12:18:56.152Z,51.14
2019-01-14T12:19:56.124Z,50.23
2019-01-14T12:20:56.104Z,50.96
2019-01-14T12:21:56.079Z,51.06
2019-01-14T12:22:56.082Z,51.79
2019-01-14T12:23:56.074Z,50.96
2019-01-14T12:24:56.092Z,50.23
2019-01-14T12:25:56.052Z,51.79
2019-01-14T12:26:56.032Z,50.33
2019-01-14T12:27:56.048Z,50.65
2019-01-14T12:28:56.009Z,50.85
2019-01-14T12:29:56.024Z,50.65
2019-01-14T12:30:56.010Z,50.75
2019-01-14T12:31:55.994Z,51.48
2019-01-14T12:32:55.970Z,51.37
2019-01-14T12:33:55.958Z,51.48
2019-01-14T12:34:55.972Z,51.17
2019-01-14T12:35:55.957Z,51.27
2019-01-14T12:36:55.932Z,50.96
2019-01-14T12:37:55.913Z,51.27
2019-01-14T12:38:55.904Z,51.48
2019-01-14T12:39:55.888Z,50.65
2019-01-14T12:40:55.885Z,51.06
2019-01-14T12:41:55.885Z,51.89
2019-01-14T12:42:56.619Z,51.27
2019-01-14T12:43:55.863Z,51.40
2019-01-14T12:44:55.835Z,52.51
2019-01-14T12:45:55.852Z,53.35
2019-01-14T12:46:55.824Z,52.41
2019-01-14T12:47:55.800Z,51.58
2019-01-14T12:48:55.799Z,52.41
2019-01-14T12:49:55.778Z,52.51
2019-01-14T12:50:56.224Z,52.41
2019-01-14T12:51:55.761Z,52.62